Home   Weather   United Kingdom   Peterborough   Past weeks
Flag for United Kingdom

Past Weather in Peterborough, England, United Kingdom — Yesterday and Last 2 Weeks

Currently: 43 °F. Passing clouds. (Weather station: Wittering, United Kingdom). See more current weather

Past Weather in Peterborough — Graph

°F

Peterborough Temperature Yesterday

Maximum temperature yesterday: 48 °F (at 1:50 pm)
Minimum temperature yesterday: 39 °F (at 4:20 am)
Average temperature yesterday: 43 °F

High & Low Weather Summary for the Past Weeks

 TemperatureHumidityPressure
High48 °F (Jan 29, 1:50 pm)100% (Jan 16, 12:50 am)30.69 "Hg (Jan 16, 12:50 am)
Low21 °F (Jan 22, 5:20 am)61% (Jan 23, 2:50 pm)29.06 "Hg (Jan 16, 3:50 am)
Average35 °F87%30.11 "Hg
* Reported Jan 15 5:20 pm — Jan 30 5:50 pm, Peterborough. Weather by CustomWeather, © 2023

Note: Actual official high and low records may vary slightly from our data, if they occured in-between our weather recording intervals... More about our weather records

Peterborough Weather History for the Previous 24 Hours

Scroll right to see more
 ConditionsComfort  
Time TempWeatherWind HumidityBarometerVisibility
5:50 pm
Mon, Jan 30
43 °FPassing clouds.10 mph76%30.27 "HgN/A
5:20 pm43 °FOvercast.8 mph76%30.27 "HgN/A
4:50 pm43 °FPassing clouds.9 mph76%30.27 "HgN/A
3:50 pm46 °FCool.10 mph66%30.24 "HgN/A
3:20 pm46 °FCool.13 mph66%30.24 "HgN/A
2:50 pm48 °FCool.16 mph66%30.21 "HgN/A
2:20 pm48 °FCool.17 mph66%30.21 "HgN/A
1:50 pm48 °FCool.20 mph66%30.21 "HgN/A
1:20 pm46 °FCool.22 mph66%30.21 "HgN/A
12:50 pm48 °FCool.18 mph66%30.21 "HgN/A
11:50 am46 °FPassing clouds.22 mph71%30.21 "HgN/A
11:20 am46 °FPassing clouds.21 mph71%30.21 "HgN/A
10:50 am46 °FCool.18 mph71%30.21 "HgN/A
9:50 am45 °FQuite cool.21 mph71%30.18 "HgN/A
9:20 am43 °FPassing clouds.18 mph76%30.18 "HgN/A
8:50 am41 °FScattered clouds.16 mph81%30.18 "HgN/A
8:20 am41 °FPartly sunny.17 mph81%30.15 "HgN/A
7:50 am41 °FPartly sunny.20 mph76%30.15 "HgN/A
7:20 am41 °FOvercast.20 mph81%30.12 "HgN/A
6:50 am41 °FOvercast.17 mph76%30.12 "HgN/A
5:50 am41 °FQuite cool.17 mph76%30.12 "HgN/A
4:50 am41 °FQuite cool.17 mph76%30.09 "HgN/A
4:20 am43 °FQuite cool.22 mph71%30.09 "HgN/A
3:50 am41 °FQuite cool.20 mph76%30.09 "HgN/A
3:20 am43 °FPassing clouds.18 mph71%30.09 "HgN/A
2:50 am43 °FPassing clouds.18 mph71%30.09 "HgN/A
2:20 am45 °FPassing clouds.21 mph71%30.07 "HgN/A
1:50 am46 °FPassing clouds.22 mph76%30.07 "HgN/A
1:20 am45 °FOvercast.18 mph93%30.07 "HgN/A
12:50 am45 °FOvercast.16 mph93%30.07 "HgN/A
11:20 pm
Sun, Jan 29
45 °FOvercast.16 mph87%30.07 "HgN/A
10:50 pm45 °FOvercast.15 mph87%30.07 "HgN/A
9:50 pm45 °FPartly cloudy.17 mph81%30.07 "HgN/A
9:20 pm45 °FQuite cool.21 mph81%30.07 "HgN/A
8:50 pm43 °FQuite cool.20 mph87%30.07 "HgN/A
8:20 pm43 °FQuite cool.22 mph81%30.09 "HgN/A
7:50 pm43 °FQuite cool.16 mph81%30.07 "HgN/A
7:20 pm43 °FQuite cool.16 mph81%30.09 "HgN/A
Weather by CustomWeather, © 2023

See weather overview